createdAt,value
2018-08-24T00:00:03.585Z,21.80
2018-08-24T00:01:07.005Z,21.90
2018-08-24T00:02:10.636Z,21.90
2018-08-24T00:03:14.124Z,21.90
2018-08-24T00:04:17.630Z,21.90
2018-08-24T00:05:21.032Z,21.80
2018-08-24T00:06:24.347Z,21.80
2018-08-24T00:07:27.894Z,21.80
2018-08-24T00:08:31.652Z,21.80
2018-08-24T00:09:35.018Z,21.80
2018-08-24T00:10:38.885Z,21.80
2018-08-24T00:11:42.423Z,21.90
2018-08-24T00:12:45.915Z,21.90
2018-08-24T00:13:49.396Z,21.90
2018-08-24T00:14:52.836Z,21.90
2018-08-24T00:15:56.336Z,21.90
2018-08-24T00:16:59.977Z,21.90
2018-08-24T00:18:03.582Z,21.80
2018-08-24T00:19:11.139Z,21.80
2018-08-24T00:20:14.659Z,21.80
2018-08-24T00:21:18.019Z,21.80
2018-08-24T00:22:21.543Z,21.80
2018-08-24T00:23:25.206Z,21.80
2018-08-24T00:24:28.896Z,21.80
2018-08-24T00:25:32.700Z,21.70
2018-08-24T00:26:36.388Z,21.70
2018-08-24T00:27:39.760Z,21.70
2018-08-24T00:28:43.319Z,21.70
2018-08-24T00:29:46.818Z,21.70
2018-08-24T00:30:50.387Z,21.70
2018-08-24T00:31:53.763Z,21.70
2018-08-24T00:32:57.158Z,21.70
2018-08-24T00:34:00.754Z,21.70
2018-08-24T00:35:04.655Z,21.70
2018-08-24T00:36:08.098Z,21.60
2018-08-24T00:37:11.717Z,21.60
2018-08-24T00:38:15.309Z,21.60
2018-08-24T00:39:18.872Z,21.60
2018-08-24T00:40:22.762Z,21.50
2018-08-24T00:41:26.384Z,21.50
2018-08-24T00:42:29.779Z,21.40
2018-08-24T00:43:33.366Z,21.40
2018-08-24T00:44:36.931Z,21.40
2018-08-24T00:45:40.312Z,21.40
2018-08-24T00:46:44.006Z,21.40
2018-08-24T00:47:47.426Z,21.40
2018-08-24T00:48:50.872Z,21.40
2018-08-24T00:49:54.349Z,21.40
2018-08-24T00:50:57.955Z,21.40
2018-08-24T00:52:01.552Z,21.40
2018-08-24T00:53:05.069Z,21.40
2018-08-24T00:54:08.655Z,21.40
2018-08-24T00:55:12.297Z,21.40
2018-08-24T00:56:15.803Z,21.30
2018-08-24T00:57:19.463Z,21.40
2018-08-24T00:58:22.955Z,21.30
2018-08-24T00:59:26.591Z,21.30
2018-08-24T01:00:35.733Z,21.30
2018-08-24T01:01:39.098Z,21.30
2018-08-24T01:02:42.471Z,21.30
2018-08-24T01:03:45.962Z,21.20
2018-08-24T01:04:49.462Z,21.20
2018-08-24T01:05:53.181Z,21.20
2018-08-24T01:06:56.591Z,21.20
2018-08-24T01:08:05.694Z,21.20
2018-08-24T01:09:11.111Z,21.10
2018-08-24T01:10:20.143Z,21.10
2018-08-24T01:11:28.079Z,21.10
2018-08-24T01:12:31.514Z,21.10
2018-08-24T01:13:34.813Z,21.10
2018-08-24T01:14:40.305Z,21.10
2018-08-24T01:15:51.431Z,21.10
2018-08-24T01:17:00.828Z,21.10
2018-08-24T01:18:09.948Z,21.10
2018-08-24T01:19:13.269Z,21.00
2018-08-24T01:20:16.722Z,21.00
2018-08-24T01:21:20.188Z,21.00
2018-08-24T01:22:23.665Z,20.90
2018-08-24T01:23:28.569Z,20.90
2018-08-24T01:24:32.133Z,20.90
2018-08-24T01:25:35.823Z,20.90
2018-08-24T01:26:39.659Z,21.00
2018-08-24T01:27:43.205Z,21.00
2018-08-24T01:28:46.907Z,21.00
2018-08-24T01:29:50.266Z,20.90
2018-08-24T01:30:53.960Z,20.90
2018-08-24T01:31:57.550Z,20.90
2018-08-24T01:33:00.999Z,20.90
2018-08-24T01:34:04.467Z,20.90
2018-08-24T01:35:07.901Z,20.90
2018-08-24T01:36:11.387Z,21.00
2018-08-24T01:37:14.927Z,21.00
2018-08-24T01:38:18.564Z,21.00
2018-08-24T01:39:21.949Z,21.00
2018-08-24T01:40:25.517Z,21.00
2018-08-24T01:41:28.971Z,21.00
2018-08-24T01:42:32.615Z,20.90
2018-08-24T01:43:36.117Z,20.90
2018-08-24T01:44:39.994Z,20.90
2018-08-24T01:45:43.734Z,20.80
2018-08-24T01:46:47.261Z,20.80
2018-08-24T01:47:50.957Z,20.80
2018-08-24T01:48:54.381Z,20.80
2018-08-24T01:49:57.783Z,20.80
2018-08-24T01:51:01.237Z,20.80
2018-08-24T01:52:04.697Z,20.80
2018-08-24T01:53:08.431Z,20.80
2018-08-24T01:54:12.025Z,20.80
2018-08-24T01:55:15.428Z,20.80
2018-08-24T01:56:19.079Z,20.80
2018-08-24T01:57:22.563Z,20.80
2018-08-24T01:58:25.966Z,20.80
2018-08-24T01:59:29.343Z,20.70
2018-08-24T02:00:33.015Z,20.70
2018-08-24T02:01:36.775Z,20.70
2018-08-24T02:02:40.890Z,20.70
2018-08-24T02:03:44.379Z,20.70
2018-08-24T02:04:47.716Z,20.70
2018-08-24T02:05:53.837Z,20.60
2018-08-24T02:06:57.459Z,20.60
2018-08-24T02:08:00.979Z,20.70
2018-08-24T02:09:08.872Z,20.70
2018-08-24T02:10:17.861Z,20.70
2018-08-24T02:11:26.938Z,20.80
2018-08-24T02:12:36.045Z,20.80
2018-08-24T02:13:46.473Z,20.80
2018-08-24T02:14:50.092Z,20.80
2018-08-24T02:15:53.709Z,20.70
2018-08-24T02:16:57.173Z,20.80
2018-08-24T02:18:06.020Z,20.80
2018-08-24T02:19:11.124Z,20.80
2018-08-24T02:20:19.955Z,20.80
2018-08-24T02:21:28.825Z,20.80
2018-08-24T02:22:32.489Z,20.80
2018-08-24T02:23:36.059Z,20.80
2018-08-24T02:24:39.743Z,20.70
2018-08-24T02:25:44.011Z,20.70
2018-08-24T02:26:47.390Z,20.70
2018-08-24T02:27:51.289Z,20.60
2018-08-24T02:28:54.619Z,20.60
2018-08-24T02:29:58.087Z,20.60
2018-08-24T02:31:01.867Z,20.50
2018-08-24T02:32:06.539Z,20.50
2018-08-24T02:33:10.072Z,20.50
2018-08-24T02:34:13.883Z,20.40
2018-08-24T02:35:19.913Z,20.30
2018-08-24T02:36:23.628Z,20.00
2018-08-24T02:37:28.843Z,19.90
2018-08-24T02:38:32.440Z,19.80
2018-08-24T02:39:36.087Z,19.70
2018-08-24T02:40:39.560Z,19.70
2018-08-24T02:41:43.406Z,19.70
2018-08-24T02:42:47.738Z,19.60
2018-08-24T02:43:51.362Z,19.50
2018-08-24T02:44:54.783Z,19.50
2018-08-24T02:45:58.140Z,19.40
2018-08-24T02:47:01.844Z,19.40
2018-08-24T02:48:05.583Z,19.40
2018-08-24T02:49:09.116Z,19.30
2018-08-24T02:50:12.492Z,19.30
2018-08-24T02:51:15.829Z,19.30
2018-08-24T02:52:19.225Z,19.30
2018-08-24T02:53:22.956Z,19.30
2018-08-24T02:54:26.379Z,19.30
2018-08-24T02:55:29.815Z,19.30
2018-08-24T02:56:36.107Z,19.20
2018-08-24T02:57:39.546Z,19.10
2018-08-24T02:58:43.066Z,19.10
2018-08-24T02:59:46.657Z,19.10
2018-08-24T03:00:50.077Z,19.10
2018-08-24T03:01:53.556Z,19.10
2018-08-24T03:02:57.004Z,19.10
2018-08-24T03:04:00.822Z,19.20
2018-08-24T03:05:04.412Z,19.20
2018-08-24T03:06:07.737Z,19.10
2018-08-24T03:07:11.207Z,19.10
2018-08-24T03:08:14.749Z,19.00
2018-08-24T03:09:18.569Z,19.00
2018-08-24T03:10:22.287Z,18.80
2018-08-24T03:11:25.845Z,18.70
2018-08-24T03:12:29.464Z,18.60
2018-08-24T03:13:32.957Z,18.40
2018-08-24T03:14:36.267Z,18.50
2018-08-24T03:15:39.905Z,18.40
2018-08-24T03:16:47.833Z,18.40
2018-08-24T03:17:53.562Z,18.40
2018-08-24T03:18:57.098Z,18.40
2018-08-24T03:20:00.624Z,18.30
2018-08-24T03:21:04.035Z,18.30
2018-08-24T03:22:07.422Z,18.40
2018-08-24T03:23:10.949Z,18.40
2018-08-24T03:24:14.580Z,18.40
2018-08-24T03:25:17.967Z,18.40
2018-08-24T03:26:21.530Z,18.40
2018-08-24T03:27:25.054Z,18.50
2018-08-24T03:28:28.686Z,18.50
2018-08-24T03:29:32.667Z,18.60
2018-08-24T03:30:36.048Z,18.60
2018-08-24T03:31:39.686Z,18.60
2018-08-24T03:32:43.435Z,18.60
2018-08-24T03:33:47.158Z,18.60
2018-08-24T03:34:50.836Z,18.60
2018-08-24T03:35:54.246Z,18.60
2018-08-24T03:36:57.875Z,18.60
2018-08-24T03:38:01.576Z,18.70
2018-08-24T03:39:08.581Z,18.70
2018-08-24T03:40:12.108Z,18.70
2018-08-24T03:41:16.000Z,18.70
2018-08-24T03:42:19.435Z,18.70
2018-08-24T03:43:22.904Z,18.60
2018-08-24T03:44:26.423Z,18.50
2018-08-24T03:45:30.209Z,18.60
2018-08-24T03:46:33.811Z,18.60
2018-08-24T03:47:37.276Z,18.60
2018-08-24T03:48:40.839Z,18.60
2018-08-24T03:49:44.349Z,18.60
2018-08-24T03:50:48.020Z,18.60
2018-08-24T03:51:51.752Z,18.50
2018-08-24T03:52:55.259Z,18.50
2018-08-24T03:53:58.577Z,18.50
2018-08-24T03:55:01.946Z,18.60
2018-08-24T03:56:05.659Z,18.50
2018-08-24T03:57:09.100Z,18.50
2018-08-24T03:58:12.774Z,18.50
2018-08-24T03:59:16.159Z,18.50
2018-08-24T04:00:19.710Z,18.60
2018-08-24T04:01:23.330Z,18.60
2018-08-24T04:02:26.987Z,18.60
2018-08-24T04:03:30.581Z,18.60
2018-08-24T04:04:34.059Z,18.60
2018-08-24T04:05:37.527Z,18.70
2018-08-24T04:06:41.388Z,18.70
2018-08-24T04:07:45.015Z,18.70
2018-08-24T04:08:48.471Z,18.70
2018-08-24T04:09:51.923Z,18.70
2018-08-24T04:10:55.513Z,18.70
2018-08-24T04:11:59.240Z,18.80
2018-08-24T04:13:03.182Z,18.70
2018-08-24T04:14:06.568Z,18.70
2018-08-24T04:15:09.951Z,18.70
2018-08-24T04:16:13.539Z,18.70
2018-08-24T04:17:22.848Z,18.70
2018-08-24T04:18:26.484Z,18.70
2018-08-24T04:19:30.025Z,18.70
2018-08-24T04:20:33.264Z,18.60
2018-08-24T04:21:36.601Z,18.60
2018-08-24T04:22:41.020Z,18.60
2018-08-24T04:23:44.787Z,18.60
2018-08-24T04:24:48.370Z,18.60
2018-08-24T04:25:51.975Z,18.50
2018-08-24T04:26:56.852Z,18.60
2018-08-24T04:28:00.337Z,18.50
2018-08-24T04:29:04.064Z,18.50
2018-08-24T04:30:08.343Z,18.50
2018-08-24T04:31:11.998Z,18.50
2018-08-24T04:32:15.675Z,18.50
2018-08-24T04:33:19.199Z,18.50
2018-08-24T04:34:22.687Z,18.50
2018-08-24T04:35:26.319Z,18.40
2018-08-24T04:36:30.692Z,18.40
2018-08-24T04:37:34.533Z,18.40
2018-08-24T04:38:38.122Z,18.40
2018-08-24T04:39:41.736Z,18.40
2018-08-24T04:40:45.592Z,18.40
2018-08-24T04:41:49.171Z,18.40
2018-08-24T04:42:52.762Z,18.40
2018-08-24T04:43:56.653Z,18.40
2018-08-24T04:45:00.200Z,18.30
2018-08-24T04:46:03.734Z,18.30
2018-08-24T04:47:07.170Z,18.30
2018-08-24T04:48:10.854Z,18.30
2018-08-24T04:49:14.359Z,18.20
2018-08-24T04:50:17.949Z,18.20
2018-08-24T04:51:21.562Z,18.20
2018-08-24T04:52:25.098Z,18.10
2018-08-24T04:53:28.763Z,18.00
2018-08-24T04:54:32.451Z,17.90
2018-08-24T04:55:36.130Z,17.80
2018-08-24T04:56:40.689Z,17.80
2018-08-24T04:57:44.146Z,17.70
2018-08-24T04:58:47.950Z,17.80
2018-08-24T04:59:51.943Z,17.80
2018-08-24T05:00:55.526Z,17.80
2018-08-24T05:01:58.957Z,17.70
2018-08-24T05:03:03.289Z,17.70
2018-08-24T05:04:07.592Z,17.60
2018-08-24T05:05:11.148Z,17.50
2018-08-24T05:06:14.717Z,17.40
2018-08-24T05:07:18.334Z,17.40
2018-08-24T05:08:21.985Z,17.40
2018-08-24T05:09:25.751Z,17.50
2018-08-24T05:10:29.151Z,17.40
2018-08-24T05:11:32.614Z,17.40
2018-08-24T05:12:36.232Z,17.40
2018-08-24T05:13:39.865Z,17.40
2018-08-24T05:14:43.670Z,17.40
2018-08-24T05:15:47.164Z,17.50
2018-08-24T05:16:50.730Z,17.50
2018-08-24T05:17:54.228Z,17.50
2018-08-24T05:18:57.827Z,17.40
2018-08-24T05:20:01.614Z,17.50
2018-08-24T05:21:05.207Z,17.50
2018-08-24T05:22:08.739Z,17.60
2018-08-24T05:23:12.235Z,17.60
2018-08-24T05:24:15.631Z,17.60
2018-08-24T05:25:19.152Z,17.70
2018-08-24T05:26:22.720Z,17.70
2018-08-24T05:27:26.087Z,17.80
2018-08-24T05:28:29.539Z,17.80
2018-08-24T05:29:33.031Z,17.80
2018-08-24T05:30:36.375Z,17.80
2018-08-24T05:31:39.936Z,17.90
2018-08-24T05:32:43.598Z,17.80
2018-08-24T05:33:47.012Z,17.80
2018-08-24T05:34:50.657Z,17.90
2018-08-24T05:35:54.598Z,17.90
2018-08-24T05:36:58.321Z,17.90
2018-08-24T05:38:01.655Z,17.90
2018-08-24T05:39:07.729Z,17.90
2018-08-24T05:40:11.062Z,17.90
2018-08-24T05:41:14.506Z,17.80
2018-08-24T05:42:18.044Z,17.80
2018-08-24T05:43:21.713Z,17.80
2018-08-24T05:44:25.423Z,17.80
2018-08-24T05:45:28.950Z,17.80
2018-08-24T05:46:32.770Z,17.80
2018-08-24T05:47:36.761Z,17.90
2018-08-24T05:48:40.428Z,17.90
2018-08-24T05:49:44.316Z,17.80
2018-08-24T05:50:47.847Z,17.80
2018-08-24T05:51:51.302Z,17.80
2018-08-24T05:52:54.902Z,17.80
2018-08-24T05:53:58.338Z,17.90
2018-08-24T05:55:01.905Z,17.90
2018-08-24T05:56:05.265Z,17.90
2018-08-24T05:57:08.957Z,17.90
2018-08-24T05:58:12.464Z,17.90
2018-08-24T05:59:16.011Z,18.00
2018-08-24T06:00:24.154Z,18.00
2018-08-24T06:01:27.916Z,18.00
2018-08-24T06:02:31.599Z,18.10
2018-08-24T06:03:35.165Z,18.00
2018-08-24T06:04:38.607Z,18.00
2018-08-24T06:05:47.740Z,18.00
2018-08-24T06:06:51.144Z,18.00
2018-08-24T06:07:54.564Z,17.90
2018-08-24T06:09:03.684Z,17.90
2018-08-24T06:10:07.417Z,18.00
2018-08-24T06:11:10.844Z,17.90
2018-08-24T06:12:14.325Z,18.00
2018-08-24T06:13:18.805Z,18.00
2018-08-24T06:14:22.255Z,18.10
2018-08-24T06:15:25.795Z,18.10
2018-08-24T06:16:29.294Z,18.10
2018-08-24T06:17:39.517Z,18.10
2018-08-24T06:18:42.908Z,18.20
2018-08-24T06:19:46.277Z,18.10
2018-08-24T06:20:50.185Z,18.10
2018-08-24T06:21:54.058Z,18.10
2018-08-24T06:22:57.957Z,18.10
2018-08-24T06:24:01.312Z,18.10
2018-08-24T06:25:04.834Z,18.10
2018-08-24T06:26:08.431Z,18.10
2018-08-24T06:27:11.871Z,18.20
2018-08-24T06:28:15.445Z,18.20
2018-08-24T06:29:18.851Z,18.30
2018-08-24T06:30:22.427Z,18.30
2018-08-24T06:31:26.204Z,18.30
2018-08-24T06:32:29.905Z,18.30
2018-08-24T06:33:33.451Z,18.40
2018-08-24T06:34:36.953Z,18.40
2018-08-24T06:35:40.333Z,18.30
2018-08-24T06:36:44.045Z,18.30
2018-08-24T06:37:47.491Z,18.40
2018-08-24T06:38:51.395Z,18.40
2018-08-24T06:39:54.925Z,18.50
2018-08-24T06:40:59.094Z,18.50
2018-08-24T06:42:02.764Z,18.50
2018-08-24T06:43:06.208Z,18.50
2018-08-24T06:44:09.887Z,18.40
2018-08-24T06:45:13.367Z,18.50
2018-08-24T06:46:16.933Z,18.50
2018-08-24T06:47:20.679Z,18.50
2018-08-24T06:49:35.581Z,18.50
2018-08-24T06:50:39.208Z,18.50
2018-08-24T06:51:42.688Z,18.40
2018-08-24T06:52:46.283Z,18.40
2018-08-24T06:53:49.876Z,18.40
2018-08-24T06:54:53.392Z,18.30
2018-08-24T06:55:57.278Z,18.30
2018-08-24T06:57:00.781Z,18.30
2018-08-24T06:58:04.457Z,18.30
2018-08-24T06:59:07.840Z,18.30
2018-08-24T07:00:11.452Z,18.30
2018-08-24T07:01:15.065Z,18.30
2018-08-24T07:02:18.641Z,18.30
2018-08-24T07:03:22.434Z,18.30
2018-08-24T07:04:26.468Z,18.30
2018-08-24T07:05:31.425Z,18.20
2018-08-24T07:06:34.952Z,18.20
2018-08-24T07:07:38.419Z,18.20
2018-08-24T07:08:41.963Z,18.20
2018-08-24T07:09:45.969Z,18.10
2018-08-24T07:10:49.747Z,18.10
2018-08-24T07:11:53.352Z,18.10
2018-08-24T07:12:56.904Z,18.10
2018-08-24T07:14:00.295Z,18.10
2018-08-24T07:15:03.675Z,18.20
2018-08-24T07:16:07.512Z,18.10
2018-08-24T07:17:11.002Z,18.10
2018-08-24T07:18:14.385Z,18.10
2018-08-24T07:19:17.983Z,18.10
2018-08-24T07:20:21.645Z,18.20
2018-08-24T07:21:25.102Z,18.30
2018-08-24T07:22:28.856Z,18.20
2018-08-24T07:23:32.450Z,18.30
2018-08-24T07:24:35.932Z,18.30
2018-08-24T07:25:39.678Z,18.30
2018-08-24T07:26:43.289Z,18.20
2018-08-24T07:27:47.291Z,18.20
2018-08-24T07:28:50.770Z,18.20
2018-08-24T07:29:54.265Z,18.20
2018-08-24T07:30:57.950Z,18.20
2018-08-24T07:32:01.583Z,18.10
2018-08-24T07:33:05.374Z,18.10
2018-08-24T07:34:08.886Z,18.20
2018-08-24T07:35:13.627Z,18.20
2018-08-24T07:36:17.748Z,18.10
2018-08-24T07:37:21.377Z,18.20
2018-08-24T07:38:24.940Z,18.20
2018-08-24T07:39:28.417Z,18.20
2018-08-24T07:40:32.116Z,18.20
2018-08-24T07:41:35.931Z,18.20
2018-08-24T07:42:39.910Z,18.20
2018-08-24T07:43:43.354Z,18.20
2018-08-24T07:44:52.041Z,18.20
2018-08-24T07:45:55.595Z,18.20
2018-08-24T07:46:59.238Z,18.20
2018-08-24T07:48:03.295Z,18.20
2018-08-24T07:49:07.643Z,18.10
2018-08-24T07:50:11.186Z,18.10
2018-08-24T07:51:14.800Z,18.20
2018-08-24T07:52:18.406Z,18.20
2018-08-24T07:53:21.849Z,18.20
2018-08-24T07:54:25.328Z,18.20
2018-08-24T07:55:29.155Z,18.20
2018-08-24T07:56:32.786Z,18.30
2018-08-24T07:57:36.468Z,18.30
2018-08-24T07:58:39.975Z,18.40
2018-08-24T07:59:43.837Z,18.40
2018-08-24T08:00:47.781Z,18.40
2018-08-24T08:01:51.527Z,18.50
2018-08-24T08:02:54.966Z,18.50
2018-08-24T08:04:00.152Z,18.50
2018-08-24T08:05:03.672Z,18.50
2018-08-24T08:06:08.235Z,18.50
2018-08-24T08:07:12.845Z,18.50
2018-08-24T08:08:17.493Z,18.60
2018-08-24T08:09:22.039Z,18.60
2018-08-24T08:10:29.943Z,18.70
2018-08-24T08:11:38.528Z,18.70
2018-08-24T08:12:42.102Z,18.70
2018-08-24T08:13:45.671Z,18.70
2018-08-24T08:14:54.718Z,18.80
2018-08-24T08:15:58.252Z,18.80
2018-08-24T08:17:02.598Z,18.90
2018-08-24T08:18:06.130Z,19.00
2018-08-24T08:19:10.064Z,19.20
2018-08-24T08:20:13.710Z,19.30
2018-08-24T08:21:17.060Z,19.40
2018-08-24T08:22:20.464Z,19.40
2018-08-24T08:23:23.798Z,19.50
2018-08-24T08:24:27.490Z,19.70
2018-08-24T08:25:31.191Z,19.80
2018-08-24T08:26:34.684Z,19.80
2018-08-24T08:27:38.058Z,19.90
2018-08-24T08:28:41.595Z,19.90
2018-08-24T08:29:50.831Z,19.90
2018-08-24T08:30:54.518Z,19.80
2018-08-24T08:31:58.238Z,19.70
2018-08-24T08:33:01.750Z,19.70
2018-08-24T08:34:05.271Z,19.70
2018-08-24T08:35:09.277Z,19.70
2018-08-24T08:36:12.814Z,19.70
2018-08-24T08:37:16.548Z,19.80
2018-08-24T08:38:19.948Z,19.80
2018-08-24T08:39:23.376Z,19.90
2018-08-24T08:40:26.843Z,20.00
2018-08-24T08:41:30.399Z,20.10
2018-08-24T08:42:33.991Z,20.20
2018-08-24T08:43:37.628Z,20.30
2018-08-24T08:44:40.998Z,20.30
2018-08-24T08:45:44.468Z,20.20
2018-08-24T08:46:47.962Z,20.20
2018-08-24T08:47:51.639Z,20.10
2018-08-24T08:48:55.360Z,20.10
2018-08-24T08:49:58.628Z,20.10
2018-08-24T08:51:02.012Z,20.10
2018-08-24T08:52:05.386Z,20.10
2018-08-24T08:53:08.969Z,20.10
2018-08-24T08:54:12.691Z,20.00
2018-08-24T08:55:16.055Z,20.00
2018-08-24T08:56:19.526Z,20.00
2018-08-24T08:57:22.889Z,19.90
2018-08-24T08:58:26.269Z,19.80
2018-08-24T08:59:29.816Z,19.70
2018-08-24T09:00:33.266Z,19.60
2018-08-24T09:01:36.724Z,19.60
2018-08-24T09:02:40.036Z,19.60
2018-08-24T09:03:43.763Z,19.50
2018-08-24T09:04:47.118Z,19.50
2018-08-24T09:05:50.732Z,19.60
2018-08-24T09:06:54.176Z,19.60
2018-08-24T09:07:57.668Z,19.70
2018-08-24T09:09:01.154Z,19.80
2018-08-24T09:10:04.787Z,19.80
2018-08-24T09:11:08.441Z,19.80
2018-08-24T09:12:11.959Z,19.80
2018-08-24T09:13:15.637Z,19.80
2018-08-24T09:14:19.270Z,19.80
2018-08-24T09:15:22.727Z,19.90
2018-08-24T09:16:26.156Z,19.90
2018-08-24T09:17:35.467Z,19.80
2018-08-24T09:18:44.785Z,19.80
2018-08-24T09:19:54.094Z,19.80
2018-08-24T09:21:03.433Z,19.80
2018-08-24T09:22:12.605Z,19.70
2018-08-24T09:23:21.782Z,19.60
2018-08-24T09:24:30.830Z,19.50
2018-08-24T09:25:40.009Z,19.50
2018-08-24T09:26:48.932Z,19.30
2018-08-24T09:27:57.915Z,19.20
2018-08-24T09:29:06.406Z,19.10
2018-08-24T09:30:09.784Z,19.00
2018-08-24T09:31:31.470Z,19.00
2018-08-24T09:32:34.932Z,18.90
2018-08-24T09:33:38.299Z,19.00
2018-08-24T09:34:41.760Z,19.00
2018-08-24T09:35:45.640Z,19.00
2018-08-24T09:36:49.172Z,19.00
2018-08-24T09:37:52.670Z,19.00
2018-08-24T09:38:56.360Z,19.10
2018-08-24T09:39:59.708Z,19.10
2018-08-24T09:41:03.430Z,19.10
2018-08-24T09:42:06.856Z,19.10
2018-08-24T09:43:15.966Z,19.10
2018-08-24T09:44:19.508Z,19.10
2018-08-24T09:45:23.090Z,19.10
2018-08-24T09:46:32.087Z,19.20
2018-08-24T09:47:41.000Z,19.20
2018-08-24T09:48:49.966Z,19.20
2018-08-24T09:49:53.683Z,19.20
2018-08-24T09:51:02.903Z,19.20
2018-08-24T09:52:11.979Z,19.10
2018-08-24T09:53:20.852Z,19.00
2018-08-24T09:54:24.135Z,19.00
2018-08-24T09:55:32.324Z,18.90
2018-08-24T09:56:36.936Z,18.90
2018-08-24T09:57:40.374Z,18.90
2018-08-24T09:58:44.006Z,18.90
2018-08-24T09:59:47.520Z,18.90
2018-08-24T10:00:56.450Z,19.00
2018-08-24T10:02:05.601Z,19.00
2018-08-24T10:05:21.245Z,19.00
2018-08-24T10:06:30.400Z,18.80
2018-08-24T10:07:38.424Z,18.70
2018-08-24T10:08:49.002Z,18.80
2018-08-24T10:09:52.733Z,18.80
2018-08-24T10:10:56.301Z,18.90
2018-08-24T10:11:59.727Z,19.00
2018-08-24T10:13:03.418Z,19.10
2018-08-24T10:14:07.523Z,19.20
2018-08-24T10:15:11.351Z,19.20
2018-08-24T10:16:15.721Z,19.30
2018-08-24T10:17:23.759Z,19.30
2018-08-24T10:18:27.210Z,19.30
2018-08-24T10:19:30.585Z,19.40
2018-08-24T10:20:34.023Z,19.40
2018-08-24T10:21:37.581Z,19.30
2018-08-24T10:22:40.987Z,19.30
2018-08-24T10:23:44.579Z,19.20
2018-08-24T10:24:48.199Z,19.10
2018-08-24T10:25:51.814Z,19.20
2018-08-24T10:26:55.491Z,19.20
2018-08-24T10:27:59.285Z,19.30
2018-08-24T10:29:03.824Z,19.40
2018-08-24T10:30:07.467Z,19.40
2018-08-24T10:31:11.156Z,19.50
2018-08-24T10:32:14.607Z,19.50
2018-08-24T10:33:18.166Z,19.50
2018-08-24T10:34:21.608Z,19.60
2018-08-24T10:35:24.928Z,19.60
2018-08-24T10:36:28.356Z,19.60
2018-08-24T10:37:32.040Z,19.60
2018-08-24T10:38:35.381Z,19.60
2018-08-24T10:39:39.058Z,19.70
2018-08-24T10:40:42.488Z,19.60
2018-08-24T10:41:46.014Z,19.60
2018-08-24T10:42:49.375Z,19.70
2018-08-24T10:43:52.863Z,19.70
2018-08-24T10:44:56.323Z,19.70
2018-08-24T10:45:59.923Z,19.80
2018-08-24T10:47:04.024Z,19.70
2018-08-24T10:48:07.362Z,19.70
2018-08-24T10:49:10.950Z,19.70
2018-08-24T10:50:14.407Z,19.60
2018-08-24T10:51:17.856Z,19.60
2018-08-24T10:52:21.356Z,19.70
2018-08-24T10:53:24.802Z,19.70
2018-08-24T10:54:28.111Z,19.60
2018-08-24T10:55:31.727Z,19.50
2018-08-24T10:56:35.294Z,19.40
2018-08-24T10:57:38.683Z,19.40
2018-08-24T10:58:42.148Z,19.30
2018-08-24T10:59:45.451Z,19.30
2018-08-24T11:00:48.784Z,19.40
2018-08-24T11:01:52.087Z,19.40
2018-08-24T11:02:55.555Z,19.50
2018-08-24T11:03:58.976Z,19.60
2018-08-24T11:05:02.676Z,19.70
2018-08-24T11:06:06.013Z,19.80
2018-08-24T11:07:09.572Z,19.90
2018-08-24T11:08:12.929Z,20.00
2018-08-24T11:09:16.646Z,20.20
2018-08-24T11:10:20.191Z,20.20
2018-08-24T11:11:23.961Z,20.30
2018-08-24T11:12:30.316Z,20.40
2018-08-24T11:13:33.731Z,20.50
2018-08-24T11:14:37.251Z,20.60
2018-08-24T11:15:40.747Z,20.60
2018-08-24T11:16:44.168Z,20.60
2018-08-24T11:17:53.463Z,20.60
2018-08-24T11:18:57.030Z,20.60
2018-08-24T11:20:00.619Z,20.50
2018-08-24T11:21:04.049Z,20.50
2018-08-24T11:22:07.417Z,20.50
2018-08-24T11:23:11.089Z,20.50
2018-08-24T11:24:14.519Z,20.60
2018-08-24T11:25:18.146Z,20.60
2018-08-24T11:26:21.586Z,20.70
2018-08-24T11:27:25.013Z,20.80
2018-08-24T11:28:28.454Z,20.80
2018-08-24T11:29:31.916Z,20.90
2018-08-24T11:30:35.499Z,21.00
2018-08-24T11:31:39.244Z,21.10
2018-08-24T11:32:42.768Z,21.20
2018-08-24T11:33:46.215Z,21.20
2018-08-24T11:34:49.950Z,21.10
2018-08-24T11:35:53.447Z,20.90
2018-08-24T11:36:56.954Z,20.80
2018-08-24T11:38:00.720Z,20.80
2018-08-24T11:39:06.508Z,20.80
2018-08-24T11:40:10.072Z,20.80
2018-08-24T11:41:13.899Z,20.90
2018-08-24T11:42:17.250Z,21.00
2018-08-24T11:43:20.790Z,21.10
2018-08-24T11:44:24.294Z,21.20
2018-08-24T11:45:27.763Z,21.30
2018-08-24T11:46:31.345Z,21.40
2018-08-24T11:47:34.901Z,21.20
2018-08-24T11:48:38.380Z,21.20
2018-08-24T11:49:41.709Z,21.20
2018-08-24T11:50:45.148Z,21.10
2018-08-24T11:51:55.196Z,21.10
2018-08-24T11:52:58.648Z,21.00
2018-08-24T11:54:02.273Z,21.00
2018-08-24T11:55:06.060Z,21.00
2018-08-24T11:56:09.627Z,20.90
2018-08-24T11:57:13.760Z,20.90
2018-08-24T11:58:17.911Z,20.70
2018-08-24T11:59:21.663Z,20.60
2018-08-24T12:00:34.924Z,20.60
2018-08-24T12:01:38.342Z,20.60
2018-08-24T12:02:41.675Z,20.70
2018-08-24T12:03:45.365Z,20.80
2018-08-24T12:04:49.465Z,21.00
2018-08-24T12:05:53.398Z,21.20
2018-08-24T12:06:57.010Z,21.40
2018-08-24T12:08:00.487Z,21.50
2018-08-24T12:09:05.824Z,21.60
2018-08-24T12:10:09.725Z,21.70
2018-08-24T12:11:13.292Z,21.70
2018-08-24T12:12:16.969Z,21.80
2018-08-24T12:13:20.559Z,21.90
2018-08-24T12:14:24.266Z,22.00
2018-08-24T12:15:27.719Z,21.90
2018-08-24T12:16:31.142Z,21.90
2018-08-24T12:17:36.576Z,22.10
2018-08-24T12:18:40.304Z,22.10
2018-08-24T12:19:43.720Z,22.20
2018-08-24T12:20:47.133Z,22.20
2018-08-24T12:21:50.827Z,22.30
2018-08-24T12:22:54.496Z,22.20
2018-08-24T12:23:58.335Z,22.30
2018-08-24T12:25:01.808Z,22.30
2018-08-24T12:26:05.819Z,22.30
2018-08-24T12:27:10.008Z,22.20
2018-08-24T12:28:13.884Z,22.10
2018-08-24T12:29:18.097Z,22.10
2018-08-24T12:30:21.819Z,22.10
2018-08-24T12:31:25.461Z,22.10
2018-08-24T12:32:29.062Z,22.10
2018-08-24T12:33:32.787Z,22.10
2018-08-24T12:34:36.480Z,22.00
2018-08-24T12:35:39.859Z,21.90
2018-08-24T12:36:43.372Z,21.80
2018-08-24T12:37:47.740Z,21.80
2018-08-24T12:38:51.437Z,21.80
2018-08-24T12:39:55.271Z,21.90
2018-08-24T12:40:58.760Z,21.90
2018-08-24T12:42:02.868Z,21.80
2018-08-24T12:43:06.583Z,21.80
2018-08-24T12:44:10.203Z,21.50
2018-08-24T12:45:14.822Z,21.30
2018-08-24T12:46:20.019Z,21.20
2018-08-24T12:47:24.547Z,21.20
2018-08-24T12:48:27.990Z,21.10
2018-08-24T12:49:31.741Z,21.10
2018-08-24T12:50:35.440Z,20.90
2018-08-24T12:51:38.997Z,20.90
2018-08-24T12:52:42.591Z,20.80
2018-08-24T12:53:46.431Z,20.80
2018-08-24T12:54:50.389Z,20.80
2018-08-24T12:55:55.793Z,20.90
2018-08-24T12:56:59.407Z,20.90
2018-08-24T12:58:02.873Z,20.90
2018-08-24T12:59:06.690Z,21.00
2018-08-24T13:00:10.818Z,21.10
2018-08-24T13:01:14.347Z,21.20
2018-08-24T13:02:18.853Z,21.30
2018-08-24T13:03:22.730Z,21.30
2018-08-24T13:04:26.422Z,21.40
2018-08-24T13:05:29.997Z,21.40
2018-08-24T13:06:33.435Z,21.50
2018-08-24T13:07:36.811Z,21.60
2018-08-24T13:08:40.730Z,21.60
2018-08-24T13:09:44.383Z,21.70
2018-08-24T13:10:47.936Z,21.60
2018-08-24T13:11:51.462Z,21.60
2018-08-24T13:12:54.845Z,21.40
2018-08-24T13:13:58.494Z,21.30
2018-08-24T13:15:02.001Z,21.00
2018-08-24T13:16:05.968Z,20.80
2018-08-24T13:17:09.907Z,20.60
2018-08-24T13:18:13.466Z,20.30
2018-08-24T13:19:17.238Z,20.10
2018-08-24T13:20:20.604Z,20.00
2018-08-24T13:21:23.933Z,19.90
2018-08-24T13:22:27.626Z,19.80
2018-08-24T13:23:31.123Z,19.70
2018-08-24T13:24:34.757Z,19.60
2018-08-24T13:25:38.165Z,19.50
2018-08-24T13:26:41.619Z,19.50
2018-08-24T13:27:44.970Z,19.50
2018-08-24T13:28:48.478Z,19.50
2018-08-24T13:29:52.126Z,19.40
2018-08-24T13:30:55.656Z,19.30
2018-08-24T13:31:59.083Z,19.10
2018-08-24T13:33:02.516Z,18.90
2018-08-24T13:34:06.156Z,18.80
2018-08-24T13:35:09.684Z,18.70
2018-08-24T13:36:13.238Z,18.70
2018-08-24T13:37:16.597Z,18.70
2018-08-24T13:38:20.195Z,18.70
2018-08-24T13:39:23.981Z,18.70
2018-08-24T13:40:27.447Z,18.70
2018-08-24T13:41:31.000Z,18.70
2018-08-24T13:42:34.299Z,18.70
2018-08-24T13:43:37.629Z,18.60
2018-08-24T13:44:40.975Z,18.60
2018-08-24T13:45:44.273Z,18.70
2018-08-24T13:46:47.780Z,18.70
2018-08-24T13:49:03.398Z,18.80